Time;durP1;ratioP1;P1;durP2;ratioP2;P2;SDS_P1;SDS_P2;PMS_P1;PMS_P2;Temp;Humidity;BMP_temperature;BMP_pressure;BME280_temperature;BME280_humidity;BME280_pressure;Samples;Min_cycle;Max_cycle;Signal;HPM_P1;HPM_P2
2022/05/11 00:00:41;;;;;;;11.93;6.75;;;15.80;99.90;;;;;;5078903;28;20028;-85
2022/05/11 00:03:07;;;;;;;10.00;6.82;;;15.80;99.90;;;;;;5105420;28;20024;-84
2022/05/11 00:05:34;;;;;;;11.43;6.45;;;15.80;99.90;;;;;;5095457;28;20086;-83
2022/05/11 00:08:00;;;;;;;10.18;6.43;;;15.70;99.90;;;;;;5097748;28;20017;-84
2022/05/11 00:10:26;;;;;;;14.20;6.03;;;15.70;99.90;;;;;;5070033;28;20387;-83
2022/05/11 00:12:52;;;;;;;11.23;6.65;;;15.60;99.90;;;;;;5082330;28;20024;-83
2022/05/11 00:15:22;;;;;;;12.20;6.43;;;15.60;99.90;;;;;;5098598;28;20025;-85
2022/05/11 00:17:48;;;;;;;11.55;6.53;;;15.60;99.90;;;;;;5079494;28;20225;-83
2022/05/11 00:20:15;;;;;;;11.68;7.00;;;15.60;99.90;;;;;;5099232;28;20024;-84
2022/05/11 00:22:41;;;;;;;11.73;6.03;;;15.50;99.90;;;;;;5074974;28;20112;-84
2022/05/11 00:25:09;;;;;;;8.48;6.45;;;15.50;99.90;;;;;;5093003;28;20020;-84
2022/05/11 00:27:34;;;;;;;9.25;6.65;;;15.50;99.90;;;;;;5079159;28;20084;-83
2022/05/11 00:30:01;;;;;;;12.27;6.63;;;15.50;99.90;;;;;;5099264;28;20055;-84
2022/05/11 00:32:27;;;;;;;11.25;6.45;;;15.40;99.90;;;;;;5106761;28;20039;-83
2022/05/11 00:34:53;;;;;;;14.43;6.35;;;15.40;99.90;;;;;;5095675;28;20028;-83
2022/05/11 00:37:19;;;;;;;12.68;7.05;;;15.40;99.90;;;;;;5095056;28;20070;-82
2022/05/11 00:39:46;;;;;;;11.23;6.68;;;15.30;99.90;;;;;;5096636;28;20472;-84
2022/05/11 00:42:11;;;;;;;14.38;7.90;;;15.30;99.90;;;;;;5108143;28;20111;-84
2022/05/11 00:44:37;;;;;;;15.48;7.93;;;15.30;99.90;;;;;;5106850;28;20024;-83
2022/05/11 00:47:11;;;;;;;13.85;8.40;;;15.20;99.90;;;;;;5089260;28;20055;-84
2022/05/11 00:49:43;;;;;;;17.77;8.45;;;15.20;99.90;;;;;;5098412;28;20028;-84
2022/05/11 00:52:15;;;;;;;18.42;8.95;;;15.10;99.90;;;;;;5092901;28;20059;-84
2022/05/11 00:54:45;;;;;;;14.10;8.20;;;15.00;99.90;;;;;;5074695;28;20035;-82
2022/05/11 00:57:24;;;;;;;21.02;9.27;;;15.00;99.90;;;;;;5063134;28;20024;-82
2022/05/11 00:59:52;;;;;;;12.68;8.35;;;14.90;99.90;;;;;;5090254;28;20028;-82
2022/05/11 01:02:22;;;;;;;15.65;8.40;;;14.90;99.90;;;;;;5079271;28;20028;-84
2022/05/11 01:04:51;;;;;;;16.65;8.50;;;14.80;99.90;;;;;;5095120;28;20224;-84
2022/05/11 01:07:16;;;;;;;25.52;9.38;;;14.80;99.90;;;;;;5093039;28;20028;-82
2022/05/11 01:09:42;;;;;;;15.25;8.43;;;14.80;99.90;;;;;;5102129;28;20032;-84
2022/05/11 01:12:12;;;;;;;14.48;7.80;;;14.70;99.90;;;;;;5089799;28;20020;-82
2022/05/11 01:14:41;;;;;;;14.98;7.72;;;14.70;99.90;;;;;;5116208;28;20047;-82
2022/05/11 01:17:07;;;;;;;15.32;8.35;;;14.70;99.90;;;;;;5088759;28;20349;-83
2022/05/11 01:19:35;;;;;;;22.65;8.93;;;14.60;99.90;;;;;;5098889;28;20123;-83
2022/05/11 01:22:21;;;;;;;12.32;8.82;;;14.60;99.90;;;;;;5071198;28;20012;-82
2022/05/11 01:24:48;;;;;;;21.13;10.73;;;14.50;99.90;;;;;;5103565;28;20321;-83
2022/05/11 01:27:40;;;;;;;17.08;9.15;;;14.50;99.90;;;;;;5104711;28;20088;-83
2022/05/11 01:30:12;;;;;;;16.45;9.65;;;14.50;99.90;;;;;;5086948;28;20065;-82
2022/05/11 01:32:43;;;;;;;17.77;9.95;;;14.50;99.90;;;;;;5106615;28;20036;-82
2022/05/11 01:35:32;;;;;;;22.30;9.57;;;14.40;99.90;;;;;;5084449;28;20053;-83
2022/05/11 01:38:23;;;;;;;19.80;10.30;;;14.40;99.90;;;;;;5116226;28;20044;-82
2022/05/11 01:40:49;;;;;;;21.35;9.32;;;14.40;99.90;;;;;;5090033;28;20032;-83
2022/05/11 01:43:24;;;;;;;19.58;10.02;;;14.30;99.90;;;;;;5105981;28;20046;-83
2022/05/11 01:45:50;;;;;;;15.45;9.88;;;14.30;99.90;;;;;;5091814;28;20032;-84
2022/05/11 01:48:16;;;;;;;16.17;8.90;;;14.30;99.90;;;;;;5082604;28;20028;-84
2022/05/11 01:50:43;;;;;;;20.88;10.35;;;14.30;99.90;;;;;;5088630;28;20031;-82
2022/05/11 01:53:09;;;;;;;18.48;9.88;;;14.20;99.90;;;;;;5081536;28;20410;-83
2022/05/11 01:55:35;;;;;;;15.50;9.50;;;14.20;99.90;;;;;;5080837;28;20028;-84
2022/05/11 01:58:03;;;;;;;17.80;9.57;;;14.20;99.90;;;;;;5077159;28;20024;-83
2022/05/11 02:00:30;;;;;;;17.63;9.07;;;14.20;99.90;;;;;;5084421;28;20035;-83
2022/05/11 02:02:55;;;;;;;18.05;9.18;;;14.10;99.90;;;;;;5069066;28;20021;-83
2022/05/11 02:08:06;;;;;;;19.17;9.07;;;14.10;99.90;;;;;;5079172;28;20029;-84
2022/05/11 02:10:32;;;;;;;20.92;9.45;;;14.10;99.90;;;;;;5073034;28;20028;-83
2022/05/11 02:12:58;;;;;;;17.38;9.80;;;14.10;99.90;;;;;;5092691;28;20054;-84
2022/05/11 02:15:26;;;;;;;19.95;9.57;;;14.10;99.90;;;;;;5100377;28;20032;-83
2022/05/11 02:17:53;;;;;;;15.77;10.02;;;14.10;99.90;;;;;;5076954;28;20564;-83
2022/05/11 02:20:20;;;;;;;19.63;9.98;;;14.00;99.90;;;;;;5092738;28;20020;-83
2022/05/11 02:22:47;;;;;;;18.73;10.13;;;14.00;99.90;;;;;;5078057;28;20028;-82
2022/05/11 02:25:15;;;;;;;19.77;10.63;;;14.00;99.90;;;;;;5100700;28;20020;-82
2022/05/11 02:27:42;;;;;;;27.67;13.45;;;14.00;99.90;;;;;;5080044;28;20024;-83
2022/05/11 02:30:11;;;;;;;21.85;13.85;;;13.90;99.90;;;;;;5085461;28;20455;-84
2022/05/11 02:32:37;;;;;;;25.10;13.98;;;13.90;99.90;;;;;;5094969;28;20047;-81
2022/05/11 02:35:14;;;;;;;25.10;13.75;;;13.80;99.90;;;;;;5107656;28;20031;-83
2022/05/11 02:37:41;;;;;;;19.48;13.30;;;13.80;99.90;;;;;;5107748;28;20027;-83
2022/05/11 02:40:07;;;;;;;23.50;14.10;;;13.80;99.90;;;;;;5095087;28;20099;-83
2022/05/11 02:42:33;;;;;;;21.33;13.43;;;13.70;99.90;;;;;;5074187;28;20093;-80
2022/05/11 02:44:58;;;;;;;21.20;15.02;;;13.70;99.90;;;;;;5106891;28;20024;-84
2022/05/11 02:47:24;;;;;;;27.23;14.10;;;13.70;99.90;;;;;;5097721;28;20055;-83
2022/05/11 02:49:51;;;;;;;27.70;15.52;;;13.70;99.90;;;;;;5068023;28;20031;-83
2022/05/11 02:52:17;;;;;;;22.80;13.00;;;13.70;99.90;;;;;;5088853;28;20063;-83
2022/05/11 02:54:46;;;;;;;22.35;12.38;;;13.70;99.90;;;;;;5099695;28;20429;-83
2022/05/11 02:57:13;;;;;;;17.50;12.27;;;13.70;99.90;;;;;;5063890;23;20532;-85
2022/05/11 02:59:39;;;;;;;18.98;11.68;;;13.70;99.90;;;;;;5018183;28;20697;-85
2022/05/11 03:02:05;;;;;;;21.85;11.93;;;13.70;99.90;;;;;;5014421;28;20026;-86
2022/05/11 03:04:31;;;;;;;21.35;10.93;;;13.60;99.90;;;;;;5025257;28;20045;-85
2022/05/11 03:06:57;;;;;;;18.13;11.27;;;13.60;99.90;;;;;;5035755;28;20137;-84
2022/05/11 03:09:22;;;;;;;20.55;10.77;;;13.60;99.90;;;;;;5035420;28;20030;-83
2022/05/11 03:11:48;;;;;;;16.95;10.63;;;13.60;99.90;;;;;;5037727;28;20049;-83
2022/05/11 03:14:14;;;;;;;13.10;9.85;;;13.60;99.90;;;;;;5037459;28;20006;-82
2022/05/11 03:16:40;;;;;;;16.92;10.77;;;13.50;99.90;;;;;;5037951;28;20031;-83
2022/05/11 03:19:07;;;;;;;16.42;10.13;;;13.50;99.90;;;;;;5029893;28;20006;-84
2022/05/11 03:21:33;;;;;;;19.55;10.52;;;13.50;99.90;;;;;;5034768;28;20036;-85
2022/05/11 03:24:00;;;;;;;14.45;10.70;;;13.50;99.90;;;;;;5013387;28;20036;-85
2022/05/11 03:26:25;;;;;;;18.42;10.98;;;13.50;99.90;;;;;;5010671;28;20041;-85
2022/05/11 03:28:52;;;;;;;18.90;10.85;;;13.50;99.90;;;;;;5004935;28;20022;-88
2022/05/11 03:31:18;;;;;;;19.75;11.10;;;13.50;99.90;;;;;;5017465;28;20093;-84
2022/05/11 03:36:29;;;;;;;16.83;11.35;;;13.50;99.90;;;;;;5018551;28;20121;-85
2022/05/11 03:38:54;;;;;;;19.17;10.65;;;13.50;99.90;;;;;;5023915;28;20069;-89
2022/05/11 03:41:20;;;;;;;17.30;10.60;;;13.50;99.90;;;;;;5026603;28;20022;-88
2022/05/11 03:43:46;;;;;;;18.48;10.80;;;13.50;99.90;;;;;;5006241;28;20073;-86
2022/05/11 03:46:12;;;;;;;16.02;10.70;;;13.50;99.90;;;;;;5030445;28;20080;-87
2022/05/11 03:48:38;;;;;;;25.27;11.10;;;13.50;99.90;;;;;;5023710;28;20034;-86
2022/05/11 03:51:05;;;;;;;19.25;11.25;;;13.50;99.90;;;;;;5028740;28;20038;-83
2022/05/11 03:53:31;;;;;;;16.45;10.63;;;13.50;99.90;;;;;;5024995;28;20046;-84
2022/05/11 03:55:57;;;;;;;22.73;11.10;;;13.50;99.90;;;;;;5030426;28;20018;-83
2022/05/11 03:58:23;;;;;;;26.83;11.85;;;13.50;99.90;;;;;;5028314;28;20022;-87
2022/05/11 04:00:49;;;;;;;14.07;10.43;;;13.60;99.90;;;;;;5037820;28;20030;-84
2022/05/11 04:03:15;;;;;;;15.70;9.30;;;13.60;99.90;;;;;;5026825;28;20018;-84
2022/05/11 04:05:41;;;;;;;13.35;9.40;;;13.70;99.90;;;;;;5001870;28;20045;-87
2022/05/11 04:08:07;;;;;;;14.68;8.82;;;13.70;99.90;;;;;;5016981;28;20064;-87
2022/05/11 04:10:33;;;;;;;14.25;9.02;;;13.80;99.90;;;;;;5022918;28;20042;-86
2022/05/11 04:13:04;;;;;;;14.48;8.18;;;13.80;99.90;;;;;;5021289;28;20018;-88
2022/05/11 04:15:30;;;;;;;14.40;8.50;;;13.90;99.90;;;;;;5019629;28;20123;-86
2022/05/11 04:17:57;;;;;;;10.75;7.45;;;13.90;99.90;;;;;;5035330;28;20042;-86
2022/05/11 04:20:23;;;;;;;10.32;8.25;;;13.90;99.90;;;;;;5031385;28;20202;-86
2022/05/11 04:22:50;;;;;;;10.38;7.57;;;14.00;99.90;;;;;;5038574;28;20030;-86
2022/05/11 04:25:17;;;;;;;10.88;7.22;;;14.00;99.90;;;;;;5025333;28;20046;-84
2022/05/11 04:27:47;;;;;;;17.67;7.75;;;14.00;99.90;;;;;;5020536;28;20015;-87
2022/05/11 04:30:15;;;;;;;11.77;7.78;;;14.10;99.90;;;;;;5030374;28;20022;-85
2022/05/11 04:32:41;;;;;;;15.77;7.95;;;14.10;99.90;;;;;;5039067;28;20102;-85
2022/05/11 04:35:08;;;;;;;13.07;8.13;;;14.20;99.90;;;;;;5039486;28;20060;-85
2022/05/11 04:37:34;;;;;;;14.35;7.82;;;14.20;99.90;;;;;;5039719;28;20048;-85
2022/05/11 04:40:00;;;;;;;23.63;8.88;;;14.20;99.90;;;;;;5038918;28;20018;-86
2022/05/11 04:42:26;;;;;;;13.30;7.57;;;14.40;99.90;;;;;;5015582;28;20027;-86
2022/05/11 04:44:55;;;;;;;10.27;7.50;;;14.50;99.90;;;;;;5003490;28;20037;-87
2022/05/11 04:47:21;;;;;;;13.43;8.73;;;14.70;99.90;;;;;;5026189;28;20505;-88
2022/05/11 04:49:48;;;;;;;15.82;8.48;;;14.80;99.90;;;;;;5028001;28;20049;-84
2022/05/11 04:52:16;;;;;;;13.55;8.15;;;15.00;99.90;;;;;;5016611;28;20044;-87
2022/05/11 04:54:50;;;;;;;13.50;8.18;;;15.30;99.90;;;;;;5034649;28;20022;-86
2022/05/11 04:57:19;;;;;;;10.48;7.43;;;15.50;99.90;;;;;;5045898;28;20046;-85
2022/05/11 04:59:45;;;;;;;17.60;8.90;;;15.80;99.90;;;;;;5031317;28;20010;-85
2022/05/11 05:02:19;;;;;;;13.93;7.60;;;15.90;99.90;;;;;;5033361;28;20054;-88
2022/05/11 05:04:45;;;;;;;12.48;7.72;;;16.10;99.90;;;;;;5016793;28;20033;-89
2022/05/11 05:07:11;;;;;;;14.40;7.65;;;16.30;99.90;;;;;;5018403;28;20033;-88
2022/05/11 05:09:37;;;;;;;18.27;9.30;;;16.30;99.90;;;;;;5026332;28;20052;-87
2022/05/11 05:12:04;;;;;;;12.10;8.40;;;16.20;99.90;;;;;;5024443;28;20092;-89
2022/05/11 05:14:30;;;;;;;18.05;9.05;;;16.40;99.90;;;;;;5004829;28;20034;-89
2022/05/11 05:17:04;;;;;;;15.93;8.40;;;16.50;99.90;;;;;;5005390;28;20378;-86
2022/05/11 05:19:30;;;;;;;16.75;8.70;;;16.60;99.90;;;;;;5005977;28;20045;-85
2022/05/11 05:21:57;;;;;;;14.93;8.30;;;16.80;99.90;;;;;;5005366;28;20050;-89
2022/05/11 05:24:23;;;;;;;12.65;7.82;;;17.00;99.90;;;;;;5004366;28;20034;-89
2022/05/11 05:26:50;;;;;;;13.15;8.63;;;17.10;99.90;;;;;;5009920;28;20030;-87
2022/05/11 05:32:00;;;;;;;11.93;8.40;;;17.30;99.90;;;;;;5007614;28;20038;-89
2022/05/11 05:34:25;;;;;;;17.80;9.50;;;17.30;99.90;;;;;;5016179;28;20030;-86
2022/05/11 05:36:51;;;;;;;15.43;9.30;;;17.30;99.90;;;;;;5018294;28;20058;-85
2022/05/11 05:39:17;;;;;;;14.32;9.32;;;17.30;99.90;;;;;;5017548;28;20023;-87
2022/05/11 05:41:43;;;;;;;19.55;9.82;;;17.40;99.90;;;;;;5035045;28;20068;-87
2022/05/11 05:44:09;;;;;;;24.60;9.95;;;17.50;99.90;;;;;;5031807;28;20025;-83
2022/05/11 05:46:36;;;;;;;15.90;9.25;;;17.50;99.90;;;;;;5018482;28;20025;-85
2022/05/11 05:49:02;;;;;;;16.38;8.93;;;17.60;99.90;;;;;;5018897;28;20025;-83
2022/05/11 05:51:28;;;;;;;20.17;10.27;;;17.70;99.90;;;;;;5018880;28;20042;-85
2022/05/11 05:53:55;;;;;;;17.58;9.50;;;17.70;99.90;;;;;;5018889;28;20029;-85
2022/05/11 05:56:21;;;;;;;14.30;11.18;;;17.70;99.90;;;;;;5019240;28;20030;-85
2022/05/11 05:58:47;;;;;;;21.38;11.30;;;17.70;99.90;;;;;;5035168;28;20026;-85
2022/05/11 06:01:16;;;;;;;24.33;11.93;;;17.70;99.90;;;;;;5027067;28;20100;-85
2022/05/11 06:03:44;;;;;;;18.10;11.20;;;17.70;99.90;;;;;;5050308;28;20082;-86
2022/05/11 06:06:11;;;;;;;21.55;10.98;;;17.80;99.90;;;;;;5026419;28;20038;-84
2022/05/11 06:08:37;;;;;;;16.40;10.70;;;17.90;99.90;;;;;;5035342;28;20018;-85
2022/05/11 06:11:06;;;;;;;23.92;10.40;;;18.00;99.90;;;;;;5038553;28;20033;-84
2022/05/11 06:13:32;;;;;;;31.63;11.75;;;18.20;99.90;;;;;;5036917;28;20033;-87
2022/05/11 06:15:59;;;;;;;16.60;10.65;;;18.30;99.90;;;;;;5032070;28;20038;-86
2022/05/11 06:18:25;;;;;;;22.50;11.00;;;18.40;99.90;;;;;;5023247;28;20023;-89
2022/05/11 06:20:52;;;;;;;31.60;10.98;;;18.50;99.90;;;;;;5015839;28;20093;-86
2022/05/11 06:23:19;;;;;;;22.33;11.00;;;18.60;99.90;;;;;;5010007;28;20030;-89
2022/05/11 06:25:45;;;;;;;19.42;10.20;;;18.70;99.90;;;;;;5010505;28;20081;-87
2022/05/11 06:28:11;;;;;;;22.27;10.05;;;18.80;99.90;;;;;;5009667;28;20045;-87
2022/05/11 06:30:37;;;;;;;18.45;10.45;;;18.90;99.90;;;;;;5010693;28;20437;-88
2022/05/11 06:33:03;;;;;;;18.13;9.85;;;19.10;99.90;;;;;;5017374;28;20036;-88
2022/05/11 06:35:30;;;;;;;22.83;9.77;;;19.30;99.90;;;;;;5028305;28;20038;-88
2022/05/11 06:38:00;;;;;;;21.20;10.68;;;19.50;99.90;;;;;;5027982;28;20030;-85
2022/05/11 06:40:26;;;;;;;24.40;10.88;;;19.70;99.90;;;;;;5029261;28;20045;-87
2022/05/11 06:42:52;;;;;;;20.95;10.57;;;19.90;99.90;;;;;;5035931;28;20021;-86
2022/05/11 06:45:19;;;;;;;16.67;9.90;;;20.00;99.90;;;;;;5032354;28;20060;-90
2022/05/11 06:47:46;;;;;;;16.40;10.18;;;20.20;99.90;;;;;;5033897;28;20022;-86
2022/05/11 06:50:12;;;;;;;16.88;10.98;;;20.30;99.90;;;;;;5031042;28;20042;-89
2022/05/11 06:52:39;;;;;;;20.55;10.38;;;20.50;99.90;;;;;;5026956;28;20037;-89
2022/05/11 07:00:35;;;;;;;22.42;9.98;;;20.80;99.90;;;;;;5032368;28;19901;-87
2022/05/11 07:03:01;;;;;;;22.83;11.00;;;20.90;99.90;;;;;;5036866;28;20045;-87
2022/05/11 07:05:29;;;;;;;19.35;10.43;;;20.90;99.90;;;;;;5035720;28;20045;-89
2022/05/11 07:07:55;;;;;;;34.20;10.68;;;20.80;99.90;;;;;;5027269;28;20014;-88
2022/05/11 07:10:21;;;;;;;28.38;11.10;;;20.70;99.90;;;;;;5035673;28;20014;-87
2022/05/11 07:12:48;;;;;;;27.67;10.18;;;20.70;99.90;;;;;;5034064;28;20049;-87
2022/05/11 07:15:19;;;;;;;27.48;11.05;;;20.80;99.90;;;;;;5031720;28;20068;-88
2022/05/11 07:17:56;;;;;;;25.42;10.40;;;20.80;99.90;;;;;;5026648;28;20026;-87
2022/05/11 07:20:26;;;;;;;25.65;10.27;;;20.80;99.90;;;;;;5022277;28;20010;-87
2022/05/11 07:22:53;;;;;;;19.73;9.35;;;20.90;99.90;;;;;;5019775;28;20102;-87
2022/05/11 07:25:21;;;;;;;17.30;8.50;;;21.00;99.90;;;;;;5019726;28;20053;-86
2022/05/11 07:27:50;;;;;;;24.10;8.55;;;21.10;99.90;;;;;;5031692;28;20038;-88
2022/05/11 07:30:20;;;;;;;17.50;7.72;;;21.20;99.90;;;;;;5033691;28;20022;-88
2022/05/11 07:32:46;;;;;;;14.85;7.38;;;21.50;99.90;;;;;;5032961;28;20033;-87
2022/05/11 07:35:12;;;;;;;23.55;7.72;;;21.70;99.90;;;;;;5035636;28;20048;-87
2022/05/11 07:37:38;;;;;;;17.25;7.03;;;21.80;99.90;;;;;;5036111;28;20061;-87
2022/05/11 07:40:07;;;;;;;14.18;7.00;;;22.00;99.90;;;;;;5032708;28;20040;-87
2022/05/11 07:42:33;;;;;;;11.57;6.05;;;22.30;99.90;;;;;;5031868;28;20061;-88
2022/05/11 07:44:59;;;;;;;12.50;6.20;;;22.30;99.90;;;;;;5017792;28;20093;-88
2022/05/11 07:47:24;;;;;;;18.38;6.57;;;22.40;99.90;;;;;;5029151;28;20040;-88
2022/05/11 07:49:50;;;;;;;18.92;6.35;;;22.40;99.90;;;;;;5020999;28;20034;-89
2022/05/11 07:52:16;;;;;;;14.15;6.70;;;22.60;99.90;;;;;;5021779;28;20030;-86
2022/05/11 07:54:42;;;;;;;14.73;6.90;;;22.70;99.90;;;;;;5019746;28;20026;-89
2022/05/11 07:59:56;;;;;;;12.18;6.05;;;22.70;99.90;;;;;;5018679;28;20038;-87
2022/05/11 08:02:32;;;;;;;17.70;7.05;;;22.80;99.90;;;;;;5015661;28;20473;-88
2022/05/11 08:05:00;;;;;;;18.10;6.07;;;22.70;99.90;;;;;;5015042;28;20123;-90
2022/05/11 08:07:37;;;;;;;12.15;5.65;;;22.80;99.90;;;;;;5015693;28;20012;-88
2022/05/11 08:10:03;;;;;;;17.52;6.70;;;22.80;99.90;;;;;;5015813;28;20094;-89
2022/05/11 08:12:28;;;;;;;14.10;5.85;;;22.90;99.90;;;;;;5008227;28;20030;-89
2022/05/11 08:14:54;;;;;;;17.90;6.50;;;23.10;99.90;;;;;;5009047;28;20034;-87
2022/05/11 08:17:29;;;;;;;15.30;6.00;;;23.40;99.90;;;;;;5016330;28;20065;-88
2022/05/11 08:19:56;;;;;;;14.85;5.30;;;23.50;99.70;;;;;;5023666;28;20026;-88
2022/05/11 08:22:22;;;;;;;16.85;5.78;;;23.50;99.60;;;;;;5025881;28;20054;-85
2022/05/11 08:24:49;;;;;;;11.32;4.78;;;23.60;99.50;;;;;;5029718;28;20022;-85
2022/05/11 08:27:21;;;;;;;12.63;5.70;;;23.70;99.20;;;;;;5033691;28;20013;-86
2022/05/11 08:35:18;;;;;;;15.68;5.63;;;23.80;99.10;;;;;;5025616;28;20244;-87
2022/05/11 08:37:44;;;;;;;11.05;4.93;;;23.90;98.90;;;;;;5025392;28;20026;-88
2022/05/11 08:40:28;;;;;;;15.88;5.03;;;24.00;98.50;;;;;;5018528;28;20023;-87
2022/05/11 08:42:55;;;;;;;12.27;4.60;;;24.00;98.20;;;;;;5033840;28;20029;-87
2022/05/11 08:45:22;;;;;;;12.35;4.90;;;24.00;98.10;;;;;;5053646;28;20301;-86
2022/05/11 08:47:48;;;;;;;6.68;4.28;;;24.00;97.50;;;;;;5036970;28;20030;-87
2022/05/11 08:50:16;;;;;;;15.73;5.18;;;24.30;97.00;;;;;;5034556;28;20040;-87
2022/05/11 08:53:04;;;;;;;5.55;4.00;;;24.40;96.00;;;;;;5035126;28;20034;-88
2022/05/11 08:55:46;;;;;;;11.75;4.15;;;24.50;95.30;;;;;;5038490;28;20044;-86
2022/05/11 08:58:30;;;;;;;8.85;3.97;;;24.50;94.90;;;;;;5083031;23;20063;-84
2022/05/11 09:00:58;;;;;;;8.75;4.00;;;24.60;95.10;;;;;;5067258;28;20025;-86
2022/05/11 09:03:42;;;;;;;8.68;4.40;;;24.60;94.70;;;;;;5068391;28;20029;-85
2022/05/11 09:06:18;;;;;;;14.80;4.13;;;24.60;94.50;;;;;;5067865;28;20052;-87
2022/05/11 09:08:45;;;;;;;10.65;4.53;;;24.70;93.80;;;;;;5045598;28;20060;-84
2022/05/11 09:11:14;;;;;;;9.27;3.78;;;24.70;93.70;;;;;;5024809;28;20489;-86
2022/05/11 09:13:42;;;;;;;8.35;3.92;;;24.70;92.50;;;;;;5022118;28;20084;-84
2022/05/11 09:16:36;;;;;;;12.93;3.75;;;24.70;93.00;;;;;;5027233;28;20022;-84
2022/05/11 09:19:21;;;;;;;16.67;4.00;;;24.80;92.80;;;;;;5032067;28;20038;-83
2022/05/11 09:22:04;;;;;;;10.18;3.85;;;24.90;92.50;;;;;;5032748;28;20367;-87
2022/05/11 09:24:34;;;;;;;10.15;4.53;;;25.00;92.30;;;;;;5032690;28;20041;-85
2022/05/11 09:27:10;;;;;;;6.60;3.90;;;25.00;91.10;;;;;;5040944;28;20109;-84
2022/05/11 09:29:42;;;;;;;8.38;3.50;;;25.10;91.60;;;;;;5036801;28;20041;-87
2022/05/11 09:32:25;;;;;;;8.68;3.35;;;25.30;91.00;;;;;;5046202;28;20068;-85
2022/05/11 09:34:51;;;;;;;9.52;3.70;;;25.90;90.60;;;;;;5038265;28;20216;-85
2022/05/11 09:37:36;;;;;;;6.05;3.70;;;26.20;88.80;;;;;;5042614;28;20026;-86
2022/05/11 09:40:10;;;;;;;11.52;2.95;;;26.50;88.30;;;;;;5036123;28;20030;-86
2022/05/11 09:42:47;;;;;;;7.53;3.78;;;27.30;85.80;;;;;;5035947;28;20141;-85
2022/05/11 09:45:12;;;;;;;6.30;3.30;;;27.30;82.60;;;;;;5037140;28;20044;-86
2022/05/11 09:48:02;;;;;;;14.60;3.55;;;27.70;81.50;;;;;;5035867;28;20046;-85
2022/05/11 09:50:27;;;;;;;8.85;3.92;;;28.90;80.40;;;;;;5048721;28;20029;-86
2022/05/11 09:53:07;;;;;;;5.55;3.30;;;30.30;76.50;;;;;;5043661;28;20025;-87
2022/05/11 09:55:33;;;;;;;8.77;3.42;;;30.00;74.50;;;;;;5041582;28;20033;-85
2022/05/11 09:58:02;;;;;;;12.18;3.35;;;30.60;73.10;;;;;;5042677;28;20138;-86
2022/05/11 10:00:40;;;;;;;6.35;2.97;;;31.40;71.60;;;;;;5043715;28;20021;-85
2022/05/11 10:03:12;;;;;;;4.05;2.90;;;31.10;66.40;;;;;;5051295;28;20036;-85
2022/05/11 10:05:44;;;;;;;7.50;3.03;;;30.10;65.50;;;;;;5051535;28;20029;-86
2022/05/11 10:08:21;;;;;;;4.53;2.80;;;29.70;66.20;;;;;;5051188;28;20029;-86
2022/05/11 10:10:46;;;;;;;5.82;3.10;;;31.20;64.80;;;;;;5057262;28;20068;-87
2022/05/11 10:13:21;;;;;;;5.68;3.03;;;32.70;62.50;;;;;;5050807;28;20033;-86
2022/05/11 10:24:37;;;;;;;6.82;3.42;;;32.80;57.40;;;;;;5029192;28;20386;-86
2022/05/11 10:27:15;;;;;;;4.63;2.83;;;33.10;57.50;;;;;;5030661;28;20052;-86
2022/05/11 10:30:06;;;;;;;9.43;3.00;;;34.70;56.80;;;;;;5028631;28;20030;-85
2022/05/11 10:32:34;;;;;;;4.50;2.85;;;37.50;53.60;;;;;;5028646;28;20022;-85
2022/05/11 10:35:18;;;;;;;4.53;2.88;;;39.80;50.00;;;;;;5033094;28;20099;-86
2022/05/11 10:38:03;;;;;;;4.57;3.17;;;37.60;48.00;;;;;;5031464;28;20046;-86
2022/05/11 10:40:36;;;;;;;;;;;33.90;51.00;;;;;;5044079;28;20017;-84
2022/05/11 10:43:21;;;;;;;5.78;3.47;;;32.90;52.20;;;;;;5048527;28;19931;-87
2022/05/11 10:45:58;;;;;;;5.18;2.80;;;33.20;52.50;;;;;;5044009;28;20029;-86
2022/05/11 10:48:56;;;;;;;4.22;2.75;;;34.20;52.40;;;;;;5048003;28;20021;-86
2022/05/11 10:51:46;;;;;;;4.00;2.60;;;36.60;50.50;;;;;;5045219;28;20144;-85
2022/05/11 10:54:28;;;;;;;5.28;2.92;;;38.90;48.60;;;;;;5040433;28;20059;-86
2022/05/11 10:57:29;;;;;;;3.65;2.90;;;38.50;47.50;;;;;;5030629;28;20048;-85
2022/05/11 11:00:15;;;;;;;4.78;3.10;;;38.00;48.30;;;;;;5044086;28;20117;-86
2022/05/11 11:03:11;;;;;;;3.95;2.55;;;37.50;48.70;;;;;;5056130;28;20121;-85
2022/05/11 11:05:40;;;;;;;6.45;3.28;;;37.00;48.50;;;;;;5050403;28;20021;-85
2022/05/11 11:08:35;;;;;;;3.63;2.85;;;37.30;47.90;;;;;;5056107;28;20021;-85
2022/05/11 11:11:14;;;;;;;5.78;3.00;;;35.40;48.90;;;;;;5056689;28;20025;-85
2022/05/11 11:14:00;;;;;;;5.38;3.28;;;35.60;48.80;;;;;;5041307;28;20068;-85
2022/05/11 11:16:32;;;;;;;6.82;3.40;;;35.00;48.90;;;;;;5033747;28;20028;-85
2022/05/11 11:18:59;;;;;;;5.30;2.72;;;34.50;49.10;;;;;;5034736;28;20017;-85
2022/05/11 11:21:26;;;;;;;7.75;3.30;;;34.60;49.30;;;;;;5042655;28;20074;-84
2022/05/11 11:24:31;;;;;;;4.50;2.95;;;36.40;47.90;;;;;;5054412;28;20103;-85
2022/05/11 11:27:02;;;;;;;4.47;3.03;;;36.60;47.40;;;;;;4987831;28;20065;-85
2022/05/11 11:29:31;;;;;;;5.03;2.75;;;36.10;47.60;;;;;;4984558;28;20029;-85
2022/05/11 11:31:58;;;;;;;4.10;2.95;;;37.10;47.50;;;;;;5011780;28;20037;-84
2022/05/11 11:34:32;;;;;;;6.70;3.25;;;38.30;47.10;;;;;;5039494;28;20021;-85
2022/05/11 11:36:58;;;;;;;;;;;39.70;46.30;;;;;;5043424;28;20052;-86
2022/05/11 11:39:48;;;;;;;4.63;2.95;;;40.70;45.60;;;;;;5031929;28;19924;-85
2022/05/11 11:42:31;;;;;;;5.47;2.78;;;39.70;45.70;;;;;;5034330;28;20041;-86
2022/05/11 11:44:57;;;;;;;4.25;2.92;;;39.10;46.10;;;;;;5034464;28;20022;-85
2022/05/11 11:47:26;;;;;;;6.05;3.30;;;39.10;46.10;;;;;;5035124;28;20049;-84
2022/05/11 11:49:57;;;;;;;3.35;2.70;;;38.60;45.80;;;;;;5035391;28;20033;-87
2022/05/11 11:52:40;;;;;;;6.63;2.97;;;38.00;46.20;;;;;;5032501;28;20118;-86
2022/05/11 11:55:27;;;;;;;4.20;3.03;;;38.50;46.10;;;;;;5046267;28;20053;-85
2022/05/11 11:57:56;;;;;;;6.60;3.00;;;38.10;45.90;;;;;;5029579;28;20026;-85
2022/05/11 12:00:57;;;;;;;7.40;3.63;;;37.50;46.50;;;;;;5035344;28;20255;-86
2022/05/11 12:03:26;;;;;;;5.82;3.47;;;36.30;47.10;;;;;;5036880;28;20096;-86
2022/05/11 12:05:55;;;;;;;7.40;3.67;;;34.90;48.00;;;;;;5044457;28;20017;-85
2022/05/11 12:17:01;;;;;;;9.25;4.57;;;36.50;47.80;;;;;;5042940;28;20037;-86
2022/05/11 12:19:32;;;;;;;5.35;3.13;;;37.10;47.00;;;;;;5034452;28;20097;-85
2022/05/11 12:22:01;;;;;;;7.43;4.60;;;37.20;47.00;;;;;;5024024;28;20400;-85
2022/05/11 12:24:48;;;;;;;3.78;2.72;;;37.40;46.70;;;;;;5022791;28;20018;-85
2022/05/11 12:27:25;;;;;;;5.82;2.67;;;38.60;45.90;;;;;;5038607;28;20037;-85
2022/05/11 12:29:54;;;;;;;4.30;2.72;;;40.00;45.20;;;;;;5027152;28;20022;-83
2022/05/11 12:32:40;;;;;;;4.72;3.10;;;40.30;44.50;;;;;;5038702;28;20029;-84
2022/05/11 12:35:18;;;;;;;6.45;4.32;;;39.80;44.20;;;;;;5026013;28;20030;-86
2022/05/11 12:37:54;;;;;;;10.90;3.05;;;39.80;44.90;;;;;;5039108;28;20088;-84
2022/05/11 12:40:21;;;;;;;4.03;2.85;;;40.60;44.30;;;;;;5025375;28;20030;-86
2022/05/11 12:42:55;;;;;;;4.68;2.83;;;41.20;44.10;;;;;;5027381;28;20102;-85
2022/05/11 12:45:25;;;;;;;4.00;2.75;;;42.00;43.40;;;;;;5025379;28;20026;-86
2022/05/11 12:47:59;;;;;;;7.38;3.03;;;41.50;43.00;;;;;;5040996;28;20057;-85
2022/05/11 12:50:48;;;;;;;;;;;40.10;43.50;;;;;;5026218;28;20036;-85
2022/05/11 12:53:17;;;;;;;7.55;3.00;;;39.20;44.10;;;;;;5022157;28;20392;-87
2022/05/11 12:55:50;;;;;;;4.63;3.00;;;38.70;44.60;;;;;;5034775;28;20078;-85
2022/05/11 12:58:27;;;;;;;6.90;4.22;;;39.60;44.20;;;;;;5046597;28;20042;-82
2022/05/11 13:01:02;;;;;;;5.50;3.60;;;38.70;43.60;;;;;;5036285;28;20079;-85
2022/05/11 13:03:33;;;;;;;3.00;2.80;;;37.40;44.50;;;;;;5039032;28;20074;-83
2022/05/11 13:06:07;;;;;;;7.35;2.92;;;36.60;44.20;;;;;;5029140;28;20045;-85
2022/05/11 13:08:41;;;;;;;8.43;4.82;;;35.70;45.50;;;;;;5033936;28;20052;-82
2022/05/11 13:11:09;;;;;;;2.90;2.60;;;35.90;45.70;;;;;;5027485;28;20029;-84
2022/05/11 13:13:35;;;;;;;5.50;2.53;;;37.20;44.70;;;;;;5028051;28;20029;-83
2022/05/11 13:16:31;;;;;;;3.63;2.97;;;38.40;44.20;;;;;;5030056;28;20061;-82
2022/05/11 13:19:19;;;;;;;2.75;2.40;;;40.10;43.40;;;;;;5028245;28;20113;-85
2022/05/11 13:21:58;;;;;;;2.70;2.50;;;41.50;42.20;;;;;;5038332;28;20090;-84
2022/05/11 13:24:49;;;;;;;3.38;2.58;;;42.60;41.70;;;;;;5023819;28;20058;-84
2022/05/11 13:27:33;;;;;;;5.03;2.58;;;43.30;41.30;;;;;;5023095;28;20041;-83
2022/05/11 13:30:32;;;;;;;6.75;3.17;;;43.40;41.30;;;;;;5022216;28;20026;-84
2022/05/11 13:33:04;;;;;;;5.93;2.65;;;42.00;42.00;;;;;;5022505;28;20026;-86
2022/05/11 13:35:36;;;;;;;7.03;3.08;;;41.50;41.80;;;;;;5039021;28;20129;-84